Time;durP1;ratioP1;P1;durP2;ratioP2;P2;SDS_P1;SDS_P2;PMS_P1;PMS_P2;Temp;Humidity;BMP_temperature;BMP_pressure;BME280_temperature;BME280_humidity;BME280_pressure;Samples;Min_cycle;Max_cycle;Signal;HPM_P1;HPM_P2
2022/05/13 00:02:26;;;;;;;3.83;2.85;;;;;;;16.62;64.03;96514.41;10334166;28;96988;-66
2022/05/13 00:07:29;;;;;;;4.82;3.10;;;;;;;16.59;63.82;96512.13;10334636;28;96995;-66
2022/05/13 00:12:35;;;;;;;4.57;3.17;;;;;;;16.74;62.83;96506.84;10338758;28;96920;-66
2022/05/13 00:17:38;;;;;;;5.65;3.40;;;;;;;16.73;63.41;96507.88;10336977;28;96838;-66
2022/05/13 00:22:46;;;;;;;6.03;4.20;;;;;;;16.47;65.01;96510.91;10331739;28;96862;-66
2022/05/13 00:27:50;;;;;;;5.75;3.33;;;;;;;16.42;64.64;96508.00;10306514;28;97003;-66
2022/05/13 00:32:53;;;;;;;4.57;3.28;;;;;;;16.40;64.68;96504.72;10318958;28;96826;-65
2022/05/13 00:37:56;;;;;;;4.07;3.13;;;;;;;16.50;63.73;96505.28;10327739;28;98167;-66
2022/05/13 00:43:02;;;;;;;6.68;3.08;;;;;;;16.46;63.30;96496.06;10317563;28;97769;-65
2022/05/13 00:48:07;;;;;;;5.47;2.88;;;;;;;16.36;62.45;96495.50;10324086;28;103810;-65
2022/05/13 00:53:10;;;;;;;5.50;2.95;;;;;;;16.33;62.76;96494.06;10321018;28;99086;-65
2022/05/13 00:58:17;;;;;;;5.15;3.20;;;;;;;16.10;63.31;96487.97;10322863;28;97688;-66
2022/05/13 01:03:21;;;;;;;7.70;3.47;;;;;;;15.82;64.20;96491.94;10319266;28;97805;-65
2022/05/13 01:08:24;;;;;;;4.97;3.15;;;;;;;15.71;63.84;96489.72;10322911;28;100566;-65
2022/05/13 01:13:30;;;;;;;4.53;3.00;;;;;;;15.60;63.74;96479.56;10325019;28;98503;-65
2022/05/13 01:18:36;;;;;;;5.18;3.53;;;;;;;15.35;65.01;96479.66;10318757;28;98434;-66
2022/05/13 01:23:43;;;;;;;5.68;3.70;;;;;;;15.05;65.34;96471.56;10323879;28;97715;-65
2022/05/13 01:28:49;;;;;;;4.82;3.03;;;;;;;15.12;64.34;96475.13;10327133;28;96970;-65
2022/05/13 01:33:53;;;;;;;5.25;3.10;;;;;;;15.23;64.08;96475.75;10316539;28;97775;-65
2022/05/13 01:38:58;;;;;;;6.23;3.50;;;;;;;15.24;64.19;96466.88;10330724;28;98539;-65
2022/05/13 01:44:01;;;;;;;4.22;3.28;;;;;;;15.21;63.33;96472.47;10328000;28;102496;-65
2022/05/13 01:49:04;;;;;;;6.95;3.28;;;;;;;15.07;63.14;96466.94;10321954;28;97790;-65
2022/05/13 01:54:09;;;;;;;5.65;2.92;;;;;;;15.00;62.45;96471.25;10316652;28;97574;-65
2022/05/13 01:59:11;;;;;;;5.47;3.08;;;;;;;14.96;62.25;96474.38;10321098;28;96813;-65
2022/05/13 02:04:14;;;;;;;5.15;2.75;;;;;;;15.07;60.40;96472.19;10323932;28;98716;-65
2022/05/13 02:09:18;;;;;;;5.65;3.20;;;;;;;14.86;62.13;96475.38;10326392;28;97051;-65
2022/05/13 02:14:21;;;;;;;5.40;3.43;;;;;;;14.31;63.77;96476.94;10323194;28;98548;-65
2022/05/13 02:19:24;;;;;;;5.55;3.15;;;;;;;14.17;63.21;96480.22;10323588;28;97226;-65
2022/05/13 02:24:28;;;;;;;5.15;3.15;;;;;;;14.50;62.33;96480.22;10329219;28;98684;-65
2022/05/13 02:29:31;;;;;;;5.70;3.10;;;;;;;14.70;61.59;96475.44;10317464;28;97874;-65
2022/05/13 02:34:36;;;;;;;5.53;3.00;;;;;;;14.62;61.58;96472.81;10324430;28;97519;-65
2022/05/13 02:39:40;;;;;;;5.47;2.90;;;;;;;14.46;61.97;96471.84;10326623;28;97643;-65
2022/05/13 02:44:44;;;;;;;14.95;4.28;;;;;;;14.46;60.07;96463.16;10323049;28;98582;-66
2022/05/13 02:49:46;;;;;;;6.00;2.75;;;;;;;14.72;58.73;96458.50;10324368;28;97913;-65
2022/05/13 02:54:51;;;;;;;4.60;2.38;;;;;;;14.98;58.22;96465.34;10324107;28;97940;-65
2022/05/13 02:59:53;;;;;;;3.83;2.50;;;;;;;15.03;57.36;96465.66;10323258;28;98487;-65
2022/05/13 03:04:56;;;;;;;7.72;2.55;;;;;;;15.01;57.13;96462.38;10327018;28;97768;-65
2022/05/13 03:10:00;;;;;;;5.65;2.42;;;;;;;14.98;57.26;96461.88;10320550;28;97381;-65
2022/05/13 03:15:03;;;;;;;6.60;2.30;;;;;;;14.67;58.13;96463.44;10323620;28;99944;-65
2022/05/13 03:20:08;;;;;;;6.93;2.40;;;;;;;14.44;57.77;96470.41;10319978;28;98788;-65
2022/05/13 03:25:13;;;;;;;3.35;2.08;;;;;;;14.62;57.30;96452.59;10320888;28;97664;-65
2022/05/13 03:30:21;;;;;;;4.80;2.35;;;;;;;14.77;57.35;96454.56;10318276;28;98314;-65
2022/05/13 03:35:24;;;;;;;4.22;2.15;;;;;;;14.74;56.80;96460.97;10316385;28;97799;-65
2022/05/13 03:40:29;;;;;;;7.03;2.60;;;;;;;14.70;57.14;96449.97;10317019;28;97940;-65
2022/05/13 03:45:34;;;;;;;5.93;2.90;;;;;;;14.44;58.25;96459.88;10323520;28;98429;-65
2022/05/13 03:50:39;;;;;;;4.32;2.55;;;;;;;14.32;58.80;96470.72;10320009;28;98828;-65
2022/05/13 03:55:45;;;;;;;4.88;2.80;;;;;;;14.21;58.58;96465.78;10321677;28;99201;-66
2022/05/13 04:00:49;;;;;;;4.72;2.47;;;;;;;14.13;58.90;96461.34;10321222;28;98851;-65
2022/05/13 04:11:13;;;;;;;6.00;2.70;;;;;;;14.11;59.56;96465.13;10313791;28;98727;-65
2022/05/13 04:16:16;;;;;;;6.10;2.80;;;;;;;14.09;59.53;96462.66;10324453;28;98459;-65
2022/05/13 04:21:21;;;;;;;7.97;2.67;;;;;;;13.81;59.92;96470.00;10324053;28;97031;-65
2022/05/13 04:26:27;;;;;;;6.07;2.42;;;;;;;13.84;60.28;96469.69;10324253;28;98595;-65
2022/05/13 04:31:33;;;;;;;5.07;2.50;;;;;;;13.75;59.71;96466.22;10325736;28;97641;-65
2022/05/13 04:36:36;;;;;;;5.00;2.80;;;;;;;13.36;61.28;96476.47;10329442;28;98470;-66
2022/05/13 04:47:01;;;;;;;8.82;3.05;;;;;;;13.12;62.69;96492.97;10324102;28;97635;-65
2022/05/13 04:52:04;;;;;;;6.47;2.70;;;;;;;13.12;62.24;96491.16;10331385;28;96925;-65
2022/05/13 04:57:09;;;;;;;4.32;2.63;;;;;;;13.33;61.97;96487.31;10320582;28;100095;-66
2022/05/13 05:02:12;;;;;;;5.90;3.08;;;;;;;13.55;61.71;96470.97;10331725;28;96828;-65
2022/05/13 05:07:16;;;;;;;6.68;2.72;;;;;;;13.67;62.30;96470.66;10332508;28;96940;-65
2022/05/13 05:12:20;;;;;;;6.32;3.13;;;;;;;13.36;63.12;96481.72;10320403;28;97660;-65
2022/05/13 05:17:23;;;;;;;5.65;2.88;;;;;;;13.10;63.97;96487.03;10322997;28;98743;-66
2022/05/13 05:22:26;;;;;;;6.20;3.03;;;;;;;13.20;64.20;96496.44;10327693;28;97980;-65
2022/05/13 05:27:35;;;;;;;6.22;2.88;;;;;;;13.18;64.48;96490.50;10328339;28;99008;-65
2022/05/13 05:32:38;;;;;;;4.70;2.83;;;;;;;13.45;63.59;96483.41;10324302;28;97690;-65
2022/05/13 05:37:42;;;;;;;4.63;2.60;;;;;;;13.64;63.31;96484.94;10317723;28;97321;-65
2022/05/13 05:42:48;;;;;;;3.80;2.85;;;;;;;13.69;64.05;96497.56;10323702;28;96919;-65
2022/05/13 05:47:52;;;;;;;3.85;2.85;;;;;;;13.66;63.91;96511.84;10316240;28;98428;-66
2022/05/13 05:52:56;;;;;;;4.60;3.00;;;;;;;13.93;63.47;96521.25;10323556;28;98795;-65
2022/05/13 05:58:03;;;;;;;7.35;3.50;;;;;;;14.16;62.86;96516.19;10325059;28;97086;-65
2022/05/13 06:03:06;;;;;;;7.28;3.42;;;;;;;14.31;62.79;96508.47;10329345;28;97197;-66
2022/05/13 06:08:09;;;;;;;8.85;3.75;;;;;;;14.40;62.70;96505.84;10325192;28;97666;-65
2022/05/13 06:13:14;;;;;;;9.88;3.15;;;;;;;14.60;62.13;96507.16;10324708;28;96922;-66
2022/05/13 06:18:17;;;;;;;7.40;3.30;;;;;;;14.72;63.51;96511.09;10324087;28;97219;-66
2022/05/13 06:23:20;;;;;;;11.38;3.30;;;;;;;14.94;64.25;96519.28;10321745;28;98813;-65
2022/05/13 06:28:25;;;;;;;11.02;3.20;;;;;;;15.15;62.72;96515.25;10324502;28;98178;-66
2022/05/13 06:33:28;;;;;;;9.80;3.33;;;;;;;15.50;61.90;96520.06;10327203;28;98692;-66
2022/05/13 06:38:30;;;;;;;10.15;3.28;;;;;;;15.87;61.16;96530.94;10311608;28;96946;-66
2022/05/13 06:43:35;;;;;;;11.50;3.65;;;;;;;16.24;61.06;96522.28;10321608;28;97716;-66
2022/05/13 06:48:38;;;;;;;8.23;2.95;;;;;;;16.46;59.21;96530.34;10321007;28;96974;-66
2022/05/13 06:53:41;;;;;;;5.38;2.80;;;;;;;16.56;58.27;96530.94;10316067;28;97929;-66
2022/05/13 06:58:45;;;;;;;7.75;2.63;;;;;;;16.68;57.18;96530.53;10317234;28;96947;-65
2022/05/13 07:03:48;;;;;;;;;;;;;;;16.83;56.84;96536.66;10321526;28;96986;-66
2022/05/13 07:08:52;;;;;;;7.47;2.58;;;;;;;16.92;55.26;96530.31;10327847;28;96923;-66
2022/05/13 07:13:56;;;;;;;6.95;2.42;;;;;;;17.00;54.73;96535.50;10324295;28;97134;-66
2022/05/13 07:19:00;;;;;;;4.88;2.20;;;;;;;17.02;54.72;96531.84;10314388;28;97271;-66
2022/05/13 07:24:03;;;;;;;6.70;2.60;;;;;;;17.18;54.73;96536.97;10318471;28;97094;-66
2022/05/13 07:29:07;;;;;;;5.97;2.70;;;;;;;17.32;54.18;96530.88;10312864;28;97069;-66
2022/05/13 07:34:11;;;;;;;4.43;2.38;;;;;;;17.48;53.64;96534.31;10304536;28;96960;-66
2022/05/13 07:44:41;;;;;;;4.53;2.15;;;;;;;17.67;53.02;96517.88;10211690;28;97376;-66
2022/05/13 07:49:44;;;;;;;4.70;2.53;;;;;;;17.80;52.10;96524.31;10212051;28;97145;-66
2022/05/13 07:54:47;;;;;;;5.85;3.17;;;;;;;17.87;51.81;96522.59;10221084;28;97201;-66
2022/05/13 08:05:14;;;;;;;5.85;2.60;;;;;;;18.21;51.82;96514.00;10227058;28;97096;-66
2022/05/13 08:10:16;;;;;;;5.95;2.33;;;;;;;18.44;51.95;96529.69;10221551;28;96916;-66
2022/05/13 08:15:21;;;;;;;5.18;2.58;;;;;;;18.58;51.27;96524.50;10223191;28;96821;-66
2022/05/13 08:20:26;;;;;;;3.08;2.10;;;;;;;18.64;50.29;96523.75;10284790;28;96963;-66
2022/05/13 08:25:30;;;;;;;4.28;2.03;;;;;;;18.68;49.81;96517.06;10341308;28;97279;-66
2022/05/13 08:30:35;;;;;;;6.63;2.60;;;;;;;18.86;49.37;96517.44;10343222;28;96885;-66
2022/05/13 08:35:40;;;;;;;10.10;2.42;;;;;;;19.09;48.29;96500.47;10342447;28;96731;-66
2022/05/13 08:41:14;;;;;;;3.15;1.90;;;;;;;19.34;48.32;96502.63;10343109;28;100036;-66
2022/05/13 08:46:32;;;;;;;3.70;2.17;;;;;;;19.52;48.09;96489.69;10338940;28;97029;-66
2022/05/13 08:51:50;;;;;;;6.10;2.58;;;;;;;19.81;47.27;96498.34;10342937;28;96704;-66
2022/05/13 08:56:57;;;;;;;4.63;2.25;;;;;;;19.92;47.08;96495.16;10344045;28;96814;-66
2022/05/13 09:02:07;;;;;;;6.03;2.33;;;;;;;19.90;46.78;96491.84;10342089;28;96778;-66
2022/05/13 09:07:13;;;;;;;6.38;2.38;;;;;;;19.96;48.12;96496.38;10337643;28;97003;-66
2022/05/13 09:12:22;;;;;;;5.68;2.22;;;;;;;20.17;47.75;96486.63;10344188;28;96771;-66
2022/05/13 09:17:54;;;;;;;5.05;2.28;;;;;;;20.31;47.02;96487.44;10341979;28;99760;-66
2022/05/13 09:22:59;;;;;;;5.10;2.08;;;;;;;20.45;46.57;96480.31;10341648;28;96817;-66
2022/05/13 09:28:10;;;;;;;4.30;2.50;;;;;;;20.73;46.67;96486.22;10338131;28;97796;-66
2022/05/13 09:33:23;;;;;;;4.43;2.30;;;;;;;20.97;45.93;96481.31;10336912;28;96882;-66
2022/05/13 09:38:30;;;;;;;5.47;2.47;;;;;;;21.16;46.06;96474.31;10341901;28;96945;-66
2022/05/13 09:43:38;;;;;;;3.30;2.30;;;;;;;21.22;45.26;96472.66;10340088;28;96821;-66
2022/05/13 09:48:55;;;;;;;4.93;1.98;;;;;;;21.42;45.57;96473.41;10321780;28;97509;-66
2022/05/13 09:54:06;;;;;;;2.90;1.77;;;;;;;21.70;44.51;96472.31;10342358;28;96851;-66
2022/05/13 09:59:18;;;;;;;4.30;2.50;;;;;;;22.05;43.92;96464.72;10339930;28;96935;-66
2022/05/13 10:04:24;;;;;;;3.70;2.10;;;;;;;22.38;43.09;96461.00;10337724;28;96772;-66
2022/05/13 10:14:54;;;;;;;4.95;2.22;;;;;;;22.78;42.13;96466.03;10261604;28;96928;-67
2022/05/13 10:20:03;;;;;;;5.38;2.22;;;;;;;22.92;42.24;96461.38;10261507;28;97181;-66
2022/05/13 10:25:17;;;;;;;7.60;2.70;;;;;;;23.14;42.28;96453.78;10258688;28;97285;-66
2022/05/13 10:30:33;;;;;;;4.78;2.28;;;;;;;23.42;41.77;96455.13;10259780;28;96946;-67
2022/05/13 10:35:51;;;;;;;5.30;2.47;;;;;;;23.72;41.10;96446.34;10261293;28;96923;-66
2022/05/13 10:40:57;;;;;;;7.90;2.80;;;;;;;23.83;41.57;96448.25;10262634;28;98999;-67
2022/05/13 10:46:12;;;;;;;4.50;2.42;;;;;;;23.94;41.51;96446.66;10255675;28;96908;-67
2022/05/13 10:51:23;;;;;;;6.28;2.35;;;;;;;24.15;40.74;96439.19;10315868;28;96891;-67
2022/05/13 10:56:36;;;;;;;5.20;2.03;;;;;;;24.45;40.54;96442.63;10339508;28;96981;-67
2022/05/13 11:01:50;;;;;;;7.68;2.72;;;;;;;24.67;40.42;96434.84;10339078;28;96852;-66
2022/05/13 11:07:01;;;;;;;;;;;;;;;24.73;40.84;96438.47;10322791;28;96848;-67
2022/05/13 11:12:14;;;;;;;4.50;2.22;;;;;;;24.72;39.98;96433.34;10341668;28;96889;-67
2022/05/13 11:17:28;;;;;;;4.22;2.35;;;;;;;24.82;40.00;96429.06;10337904;28;96742;-67
2022/05/13 11:22:38;;;;;;;4.88;2.08;;;;;;;24.99;40.32;96428.34;10336724;28;96975;-67
2022/05/13 11:27:57;;;;;;;4.85;2.17;;;;;;;24.90;39.75;96432.41;10319695;28;96741;-67
2022/05/13 11:33:23;;;;;;;6.35;2.22;;;;;;;24.79;40.29;96429.50;10345841;28;96777;-67
2022/05/13 11:38:41;;;;;;;4.50;2.33;;;;;;;24.76;40.12;96421.94;10344147;28;97035;-67
2022/05/13 11:43:54;;;;;;;4.95;2.40;;;;;;;24.55;39.77;96414.53;10345301;28;96881;-67
2022/05/13 11:49:06;;;;;;;3.97;1.92;;;;;;;24.40;41.05;96413.13;10342205;28;96913;-67
2022/05/13 11:54:23;;;;;;;4.40;2.28;;;;;;;24.46;41.15;96414.84;10347576;28;99952;-67
2022/05/13 11:59:45;;;;;;;4.35;2.38;;;;;;;24.61;40.63;96413.56;10344549;28;97077;-67
2022/05/13 12:05:09;;;;;;;5.25;2.40;;;;;;;24.68;41.44;96414.28;10344729;28;96998;-67
2022/05/13 12:10:14;;;;;;;6.10;2.60;;;;;;;25.04;40.34;96413.25;10337260;28;99012;-67
2022/05/13 12:15:41;;;;;;;8.00;2.90;;;;;;;25.44;40.15;96403.59;10346940;28;97512;-67
2022/05/13 12:20:54;;;;;;;4.20;2.38;;;;;;;25.69;40.70;96397.13;10344099;28;96785;-67
2022/05/13 12:26:00;;;;;;;4.22;2.75;;;;;;;25.93;40.03;96393.28;10343749;28;96853;-67
2022/05/13 12:31:18;;;;;;;4.30;2.38;;;;;;;26.04;39.65;96390.78;10339480;28;101816;-67
2022/05/13 12:42:09;;;;;;;4.45;2.47;;;;;;;26.37;39.02;96387.31;10224586;28;97100;-67
2022/05/13 12:47:22;;;;;;;5.20;2.47;;;;;;;26.18;38.65;96379.50;10224137;28;97012;-67
2022/05/13 12:52:37;;;;;;;7.63;3.27;;;;;;;26.40;38.58;96380.66;10229784;28;96822;-67
2022/05/13 12:57:45;;;;;;;4.63;2.47;;;;;;;26.48;38.84;96373.00;10219379;28;97302;-66
2022/05/13 13:02:51;;;;;;;7.40;2.80;;;;;;;26.80;37.83;96371.59;10225473;28;96838;-67
2022/05/13 13:07:55;;;;;;;4.38;2.50;;;;;;;26.92;38.43;96361.56;10223688;28;97825;-67
2022/05/13 13:13:10;;;;;;;3.65;2.33;;;;;;;26.89;38.04;96352.13;10219579;28;96940;-67
2022/05/13 13:18:14;;;;;;;6.07;2.40;;;;;;;27.11;37.99;96354.84;10324566;28;97175;-67
2022/05/13 13:23:18;;;;;;;4.20;2.28;;;;;;;27.27;38.04;96353.16;10341045;28;96791;-67
2022/05/13 13:28:26;;;;;;;6.10;2.67;;;;;;;27.31;37.61;96348.91;10339603;28;96820;-67
2022/05/13 13:33:32;;;;;;;4.65;2.75;;;;;;;27.45;37.19;96348.50;10342203;28;100104;-67
2022/05/13 13:38:35;;;;;;;6.60;2.90;;;;;;;27.55;37.44;96343.25;10340977;28;97499;-67
2022/05/13 13:43:39;;;;;;;6.82;2.92;;;;;;;27.69;37.15;96341.00;10340790;28;97171;-67
2022/05/13 13:48:46;;;;;;;4.57;2.40;;;;;;;28.19;36.18;96334.44;10321759;28;96719;-67
2022/05/13 13:53:55;;;;;;;5.15;2.40;;;;;;;28.63;35.39;96324.53;10343205;28;97434;-67
2022/05/13 13:59:18;;;;;;;3.90;2.40;;;;;;;29.01;35.15;96319.88;10340727;28;97178;-68
2022/05/13 14:04:24;;;;;;;5.57;2.50;;;;;;;29.60;34.62;96322.22;10337755;28;96688;-67
2022/05/13 14:09:32;;;;;;;3.45;2.60;;;;;;;30.44;33.42;96311.97;10341370;28;96974;-68
2022/05/13 14:14:42;;;;;;;5.88;2.53;;;;;;;30.77;32.98;96323.25;10340079;28;97882;-68
2022/05/13 14:19:50;;;;;;;4.72;2.88;;;;;;;31.51;32.28;96320.72;10339936;28;97285;-68
2022/05/13 14:25:02;;;;;;;7.32;2.45;;;;;;;31.48;31.73;96326.69;10337468;28;96999;-67
2022/05/13 14:30:10;;;;;;;7.63;3.20;;;;;;;29.38;34.93;96318.91;10342719;28;96887;-67
2022/05/13 14:35:18;;;;;;;4.72;3.25;;;;;;;28.18;36.99;96327.44;10339523;28;97380;-67
2022/05/13 14:40:29;;;;;;;6.65;3.42;;;;;;;27.43;38.05;96319.25;10337569;28;96872;-67
2022/05/13 14:45:36;;;;;;;7.28;3.50;;;;;;;26.95;38.94;96320.88;10339369;28;97404;-67
2022/05/13 14:50:41;;;;;;;4.93;3.05;;;;;;;26.91;39.35;96317.84;10338194;28;99415;-68
2022/05/13 14:55:51;;;;;;;6.10;3.42;;;;;;;26.85;40.44;96313.50;10339679;28;96921;-67
2022/05/13 15:00:59;;;;;;;4.85;3.38;;;;;;;26.46;40.27;96315.41;10336840;28;98832;-67
2022/05/13 15:06:21;;;;;;;5.60;3.13;;;;;;;26.14;40.99;96316.00;10340162;28;96797;-67
2022/05/13 15:11:23;;;;;;;5.25;3.45;;;;;;;25.90;41.40;96310.78;10337882;28;98924;-67
2022/05/13 15:16:31;;;;;;;4.68;3.38;;;;;;;26.03;41.25;96311.53;10334693;28;96844;-66
2022/05/13 15:21:34;;;;;;;3.90;3.28;;;;;;;26.30;40.90;96312.50;10329786;28;96873;-67
2022/05/13 15:26:38;;;;;;;4.90;3.10;;;;;;;26.68;40.33;96315.44;10335124;28;96823;-68
2022/05/13 15:31:42;;;;;;;4.43;2.90;;;;;;;27.65;39.73;96324.59;10334732;28;96777;-67
2022/05/13 15:36:45;;;;;;;6.18;3.40;;;;;;;28.14;39.08;96318.28;10326015;28;96980;-67
2022/05/13 15:41:48;;;;;;;;;;;;;;;27.96;39.40;96318.66;10332043;28;97031;-67
2022/05/13 15:46:52;;;;;;;5.60;3.28;;;;;;;27.10;40.15;96317.56;10329248;28;97029;-67
2022/05/13 15:57:18;;;;;;;4.88;3.17;;;;;;;26.11;41.00;96317.28;10330001;28;97021;-67
2022/05/13 16:02:27;;;;;;;4.15;2.90;;;;;;;25.88;41.62;96325.50;10327403;28;97144;-67
2022/05/13 16:07:30;;;;;;;4.32;3.13;;;;;;;25.81;41.83;96320.28;10329248;28;99535;-67
2022/05/13 16:12:41;;;;;;;3.95;3.30;;;;;;;25.97;42.02;96318.66;10331991;28;97374;-67
2022/05/13 16:17:46;;;;;;;5.40;3.60;;;;;;;26.78;41.00;96317.41;10332282;28;97044;-67
2022/05/13 16:22:49;;;;;;;3.50;2.72;;;;;;;27.73;39.34;96306.41;10333295;28;96943;-67
2022/05/13 16:27:58;;;;;;;4.63;3.20;;;;;;;27.43;40.30;96311.19;10336984;28;97099;-67
2022/05/13 16:33:03;;;;;;;4.68;3.00;;;;;;;26.87;40.57;96313.25;10341780;28;96868;-67
2022/05/13 16:38:07;;;;;;;4.18;3.13;;;;;;;26.62;41.28;96305.69;10339162;28;97830;-67
2022/05/13 16:43:09;;;;;;;4.38;3.20;;;;;;;26.58;40.75;96316.09;10334850;28;96940;-67
2022/05/13 16:48:14;;;;;;;;;;;;;;;26.78;40.72;96312.03;10345182;28;97090;-67
2022/05/13 16:53:17;;;;;;;;;;;;;;;27.65;40.00;96310.38;10342410;28;98061;-67
2022/05/13 16:58:20;;;;;;;4.28;2.80;;;;;;;28.38;38.15;96312.56;10340341;28;98673;-67
2022/05/13 17:03:25;;;;;;;3.97;2.90;;;;;;;29.02;36.92;96308.03;10343920;28;96967;-68
2022/05/13 17:16:12;;;;;;;4.13;2.60;;;;;;;29.38;36.98;96308.16;10341624;28;96982;-68
2022/05/13 17:19:18;;;;;;;4.43;3.00;;;;;;;28.28;37.62;96328.63;10337971;28;97744;-67
2022/05/13 17:24:25;;;;;;;4.57;2.88;;;;;;;27.22;38.90;96328.16;10339328;28;97143;-67
2022/05/13 17:29:28;;;;;;;4.03;3.10;;;;;;;26.34;39.85;96337.72;10350864;28;97109;-67
2022/05/13 17:34:32;;;;;;;5.10;2.93;;;;;;;25.72;41.33;96337.78;10334784;28;97065;-67
2022/05/13 17:39:37;;;;;;;4.72;3.17;;;;;;;25.33;41.59;96332.25;10339636;28;96795;-68
2022/05/13 17:44:40;;;;;;;6.78;3.63;;;;;;;25.01;42.41;96328.19;10337336;28;97578;-67
2022/05/13 17:49:45;;;;;;;6.90;3.53;;;;;;;25.44;41.81;96334.03;10337336;28;96950;-67
2022/05/13 17:54:48;;;;;;;5.45;3.33;;;;;;;25.48;41.72;96332.53;10340490;28;96935;-67
2022/05/13 17:59:51;;;;;;;5.80;3.53;;;;;;;25.47;41.65;96328.22;10342154;28;96940;-67
2022/05/13 18:04:56;;;;;;;5.27;3.30;;;;;;;25.31;42.13;96326.34;10337558;28;96968;-67
2022/05/13 18:09:59;;;;;;;4.95;3.20;;;;;;;24.87;42.50;96324.97;10337187;28;99656;-67
2022/05/13 18:15:02;;;;;;;4.13;2.85;;;;;;;24.67;42.74;96330.66;10342177;28;98182;-67
2022/05/13 18:20:08;;;;;;;5.10;3.20;;;;;;;24.52;42.87;96332.19;10333634;28;97035;-68
2022/05/13 18:25:12;;;;;;;6.03;4.10;;;;;;;24.47;43.41;96339.06;10334527;28;96977;-67
2022/05/13 18:30:15;;;;;;;5.15;3.15;;;;;;;24.41;43.66;96344.50;10341681;28;98502;-67
2022/05/13 18:35:20;;;;;;;4.72;3.05;;;;;;;24.15;43.62;96351.13;10337421;28;96860;-67
2022/05/13 18:51:08;;;;;;;5.95;5.00;;;;;;;23.62;45.48;96358.06;10334731;28;97065;-67
2022/05/13 18:56:12;;;;;;;9.35;5.50;;;;;;;23.40;46.48;96365.75;10330436;28;98066;-67
2022/05/13 19:01:15;;;;;;;5.82;3.65;;;;;;;23.08;47.41;96369.41;10335182;28;98459;-67
2022/05/13 19:06:22;;;;;;;9.07;4.25;;;;;;;22.84;47.61;96373.78;10340710;28;97946;-67
2022/05/13 19:11:25;;;;;;;6.78;4.10;;;;;;;22.60;48.37;96384.25;10338407;28;97152;-67
2022/05/13 19:16:28;;;;;;;6.77;4.17;;;;;;;22.48;48.73;96385.22;10333907;28;96808;-67
2022/05/13 19:21:34;;;;;;;5.70;4.13;;;;;;;22.29;49.29;96392.31;10332923;28;96950;-67
2022/05/13 19:26:37;;;;;;;10.38;4.60;;;;;;;22.13;50.19;96399.81;10333636;28;96949;-66
2022/05/13 19:31:40;;;;;;;7.78;4.90;;;;;;;21.76;51.20;96414.78;10334076;28;96929;-67
2022/05/13 19:36:45;;;;;;;6.30;4.53;;;;;;;21.36;52.40;96421.09;10331962;28;98354;-67
2022/05/13 19:41:49;;;;;;;;;;;;;;;21.08;51.73;96430.19;10334493;28;96844;-67
2022/05/13 19:46:52;;;;;;;;;;;;;;;20.82;51.91;96451.50;10333612;28;96890;-67
2022/05/13 19:51:57;;;;;;;;;;;;;;;20.72;51.66;96443.94;10332175;28;97205;-67
2022/05/13 19:57:00;;;;;;;;;;;;;;;20.66;51.33;96456.19;10341812;28;96789;-67
2022/05/13 20:02:02;;;;;;;;;;;;;;;20.35;51.54;96456.81;10339988;28;96825;-67
2022/05/13 20:12:27;;;;;;;;;;;;;;;19.85;52.00;96464.31;10339025;28;97022;-66
2022/05/13 20:17:31;;;;;;;;;;;;;;;19.65;52.21;96456.31;10341729;28;97954;-67
2022/05/13 20:27:55;;;;;;;;;;;;;;;19.20;52.48;96462.84;10328981;28;96922;-67
2022/05/13 20:32:57;;;;;;;;;;;;;;;19.18;52.68;96459.56;10339731;28;97314;-66
2022/05/13 20:38:02;;;;;;;;;;;;;;;19.16;52.82;96458.97;10335190;28;96899;-67
2022/05/13 20:43:05;;;;;;;;;;;;;;;18.98;53.08;96466.59;10338008;28;96977;-67
2022/05/13 20:48:08;;;;;;;;;;;;;;;18.71;53.11;96461.13;10338379;28;96912;-67
2022/05/13 20:53:12;;;;;;;;;;;;;;;18.40;54.09;96459.66;10337643;28;96947;-67
2022/05/13 20:58:15;;;;;;;;;;;;;;;18.10;53.95;96459.81;10337216;28;97786;-67
2022/05/13 21:03:18;;;;;;;;;;;;;;;18.01;54.52;96460.97;10333814;28;97132;-67
2022/05/13 21:08:22;;;;;;;;;;;;;;;17.83;54.34;96460.53;10337634;28;96899;-67
2022/05/13 21:13:25;;;;;;;;;;;;;;;17.72;54.63;96457.38;10336787;28;96813;-67
2022/05/13 21:18:28;;;;;;;;;;;;;;;17.79;54.24;96462.75;10336998;28;96921;-67
2022/05/13 21:23:32;;;;;;;;;;;;;;;17.74;54.29;96460.66;10336808;28;97064;-67
2022/05/13 21:28:35;;;;;;;;;;;;;;;17.65;54.72;96467.06;10333763;28;96871;-67
2022/05/13 21:39:00;;;;;;;;;;;;;;;17.41;55.42;96464.75;10338093;28;96831;-67
2022/05/13 21:44:03;;;;;;;;;;;;;;;17.22;55.10;96464.31;10335212;28;96869;-67
2022/05/13 21:49:06;;;;;;;;;;;;;;;16.87;55.89;96461.44;10335175;28;97206;-67
2022/05/13 21:54:10;;;;;;;;;;;;;;;16.67;56.28;96470.84;10336067;28;96986;-67
2022/05/13 21:59:13;;;;;;;;;;;;;;;16.86;55.87;96457.13;10335299;28;97060;-67
2022/05/13 22:04:16;;;;;;;;;;;;;;;16.93;55.51;96468.59;10332591;28;97050;-67
2022/05/13 22:09:20;;;;;;;;;;;;;;;16.94;55.49;96464.16;10336413;28;97184;-67
2022/05/13 22:14:23;;;;;;;;;;;;;;;17.05;55.29;96458.41;10334259;28;96792;-67
2022/05/13 22:19:26;;;;;;;;;;;;;;;16.99;55.11;96465.25;10333562;28;96886;-67
2022/05/13 22:24:30;;;;;;;;;;;;;;;16.63;56.15;96460.63;10339125;28;96990;-67
2022/05/13 22:29:33;;;;;;;;;;;;;;;16.71;55.54;96474.75;10342308;28;97675;-66
2022/05/13 22:34:35;;;;;;;;;;;;;;;16.66;55.84;96474.47;10337835;28;96864;-67
2022/05/13 22:39:39;;;;;;;;;;;;;;;16.68;56.07;96469.84;10333644;28;96855;-67
2022/05/13 22:44:42;;;;;;;;;;;;;;;16.86;55.37;96459.78;10336250;28;97773;-67
2022/05/13 22:49:45;;;;;;;;;;;;;;;16.92;55.26;96466.97;10339549;28;97484;-67
2022/05/13 22:54:49;;;;;;;;;;;;;;;16.89;55.23;96467.34;10337090;28;99748;-67
2022/05/13 22:59:52;;;;;;;;;;;;;;;16.82;55.39;96461.16;10341105;28;97035;-67
2022/05/13 23:04:54;;;;;;;;;;;;;;;16.72;55.74;96452.66;10338315;28;97404;-67
2022/05/13 23:15:19;;;;;;;;;;;;;;;16.08;56.63;96459.16;10334316;28;97211;-67
2022/05/13 23:20:21;;;;;;;;;;;;;;;16.15;56.55;96460.06;10341531;28;97016;-67
2022/05/13 23:25:25;;;;;;;;;;;;;;;15.97;57.18;96462.22;10333492;28;96888;-67
2022/05/13 23:30:28;;;;;;;;;;;;;;;15.88;57.99;96451.72;10346007;28;96879;-67
2022/05/13 23:35:31;;;;;;;;;;;;;;;15.85;58.18;96453.88;10343901;28;97197;-67
2022/05/13 23:40:35;;;;;;;;;;;;;;;15.92;58.00;96454.00;10341173;28;97465;-66
2022/05/13 23:45:38;;;;;;;;;;;;;;;16.07;57.10;96452.25;10341323;28;97124;-66
2022/05/13 23:50:40;;;;;;;;;;;;;;;16.29;57.13;96449.75;10342917;28;96836;-67
2022/05/13 23:56:00;;;;;;;;;;;;;;;16.34;56.89;96452.69;10338773;28;97334;-67
